Time;durP1;ratioP1;P1;durP2;ratioP2;P2;SDS_P1;SDS_P2;PMS_P1;PMS_P2;Temp;Humidity;BMP_temperature;BMP_pressure;BME280_temperature;BME280_humidity;BME280_pressure;Samples;Min_cycle;Max_cycle;Signal;HPM_P1;HPM_P2
2022/08/11 00:01:06;;;;;;;3.93;3.63;;;;;;;20.82;42.91;156716.06;4993240;28;20453;-85
2022/08/11 00:03:35;;;;;;;3.53;3.23;;;;;;;20.81;42.68;156714.75;4946582;28;20502;-85
2022/08/11 00:06:02;;;;;;;4.13;3.20;;;;;;;20.82;42.89;156716.06;4957532;28;20442;-85
2022/08/11 00:08:31;;;;;;;3.37;3.07;;;;;;;20.79;42.92;156709.53;4990446;28;20508;-85
2022/08/11 00:11:00;;;;;;;4.53;3.20;;;;;;;20.80;42.77;156710.84;4968225;28;20450;-85
2022/08/11 00:13:33;;;;;;;3.63;3.17;;;;;;;20.77;42.93;156703.03;4963402;28;20457;-85
2022/08/11 00:16:00;;;;;;;3.50;3.20;;;;;;;20.80;42.82;156710.84;4975788;28;20492;-85
2022/08/11 00:18:27;;;;;;;3.97;3.57;;;;;;;20.82;42.87;156717.38;4993197;28;20487;-85
2022/08/11 00:20:59;;;;;;;3.67;3.37;;;;;;;20.78;43.13;156705.66;4977480;28;20501;-85
2022/08/11 00:23:26;;;;;;;3.80;3.50;;;;;;;20.80;43.05;156710.84;4994266;28;20491;-85
2022/08/11 00:25:53;;;;;;;3.70;3.40;;;;;;;20.74;43.22;156696.50;4994648;28;20513;-85
2022/08/11 00:28:27;;;;;;;4.17;3.33;;;;;;;20.77;42.96;156703.03;4994165;28;20442;-85
2022/08/11 00:30:55;;;;;;;4.43;4.03;;;;;;;20.72;43.28;156689.97;4962122;28;20488;-85
2022/08/11 00:33:23;;;;;;;3.90;3.60;;;;;;;20.72;43.25;156691.28;4970182;28;20458;-86
2022/08/11 00:35:51;;;;;;;4.00;3.60;;;;;;;20.66;43.45;156675.63;4968918;28;20458;-85
2022/08/11 00:38:24;;;;;;;3.60;3.30;;;;;;;20.69;43.44;156682.16;4977299;28;20819;-86
2022/08/11 00:40:57;;;;;;;7.20;3.60;;;;;;;20.60;43.64;156661.28;4983689;28;21056;-85
2022/08/11 00:43:36;;;;;;;4.33;3.90;;;;;;;20.63;43.58;156669.09;4962241;28;20576;-85
2022/08/11 00:46:12;;;;;;;3.87;3.23;;;;;;;20.58;43.86;156656.06;4975858;28;20450;-85
2022/08/11 00:48:47;;;;;;;5.80;3.70;;;;;;;20.50;43.89;156635.19;4983964;28;20461;-85
2022/08/11 00:51:23;;;;;;;3.73;3.43;;;;;;;20.50;43.96;156635.19;4975610;28;20502;-85
2022/08/11 00:54:03;;;;;;;3.80;3.50;;;;;;;20.48;44.04;156628.66;4993717;28;20457;-85
2022/08/11 00:57:12;;;;;;;3.77;3.40;;;;;;;20.45;44.46;156622.16;4989495;28;20537;-85
2022/08/11 01:00:11;;;;;;;4.90;3.60;;;;;;;20.35;44.64;156596.06;4957612;28;20449;-86
2022/08/11 01:03:13;;;;;;;3.80;3.50;;;;;;;20.37;44.57;156601.28;4976771;28;20937;-85
2022/08/11 01:06:03;;;;;;;3.97;3.60;;;;;;;20.32;44.66;156588.25;5007910;28;20826;-85
2022/08/11 01:08:46;;;;;;;4.30;3.70;;;;;;;20.37;45.13;156601.28;4995877;28;20464;-85
2022/08/11 01:11:45;;;;;;;5.43;3.87;;;;;;;20.32;45.21;156588.25;5001146;28;20802;-85
2022/08/11 01:14:37;;;;;;;3.60;3.40;;;;;;;20.36;45.27;156598.66;4998748;28;20444;-86
2022/08/11 01:17:45;;;;;;;5.20;3.90;;;;;;;20.34;45.38;156592.13;4976154;28;20449;-85
2022/08/11 01:20:33;;;;;;;4.40;3.60;;;;;;;20.28;45.88;156577.78;5011131;28;20476;-85
2022/08/11 01:23:41;;;;;;;5.00;4.27;;;;;;;20.34;45.88;156593.44;4988351;28;21050;-85
2022/08/11 01:27:01;;;;;;;4.20;3.90;;;;;;;20.30;46.15;156583.03;4975379;28;20888;-85
2022/08/11 01:30:07;;;;;;;4.67;4.10;;;;;;;20.36;46.19;156598.66;4946265;29;20543;-85
2022/08/11 01:33:08;;;;;;;7.70;4.10;;;;;;;20.39;46.26;156606.47;4989011;28;20943;-84
2022/08/11 01:36:27;;;;;;;3.73;3.43;;;;;;;20.28;46.72;156577.78;4958279;28;20469;-85
2022/08/11 01:39:17;;;;;;;4.27;3.87;;;;;;;20.22;46.89;156562.13;4998275;28;21025;-85
2022/08/11 01:45:18;;;;;;;3.93;3.63;;;;;;;20.15;47.17;156543.81;4897005;29;20436;-85
2022/08/11 01:47:51;;;;;;;4.43;4.03;;;;;;;20.10;47.43;156529.47;4990784;28;21043;-85
2022/08/11 01:50:28;;;;;;;4.60;4.20;;;;;;;20.05;47.56;156517.75;4998907;28;20531;-85
2022/08/11 01:53:08;;;;;;;4.00;3.70;;;;;;;20.07;47.45;156522.94;4977142;28;20548;-85
2022/08/11 01:55:40;;;;;;;4.50;4.10;;;;;;;20.07;47.48;156521.69;4976343;28;20477;-85
2022/08/11 01:58:14;;;;;;;4.73;4.30;;;;;;;20.01;48.18;156508.59;5008742;28;20460;-85
2022/08/11 02:00:51;;;;;;;4.73;4.23;;;;;;;20.00;47.75;156504.72;4999567;28;20460;-85
2022/08/11 02:03:22;;;;;;;4.50;4.10;;;;;;;19.96;48.05;156494.31;4991438;28;20489;-85
2022/08/11 02:05:59;;;;;;;4.43;3.73;;;;;;;19.92;48.02;156483.84;5001497;28;20457;-85
2022/08/11 02:08:42;;;;;;;5.33;4.03;;;;;;;19.90;48.30;156478.66;5009602;28;20467;-85
2022/08/11 02:11:29;;;;;;;4.03;3.73;;;;;;;19.80;48.44;156453.84;4990375;28;20705;-85
2022/08/11 02:14:00;;;;;;;5.60;4.20;;;;;;;19.79;48.45;156451.28;5007670;28;20472;-85
2022/08/11 02:16:35;;;;;;;4.90;4.23;;;;;;;19.80;48.50;156452.59;4990207;28;20796;-85
2022/08/11 02:24:53;;;;;;;5.20;4.70;;;;;;;19.72;48.88;156431.72;4979988;28;20469;-85
2022/08/11 02:27:23;;;;;;;4.80;4.30;;;;;;;19.70;48.62;156426.47;4997771;28;20942;-85
2022/08/11 02:30:03;;;;;;;4.57;4.17;;;;;;;19.68;48.99;156421.25;4996916;28;20456;-85
2022/08/11 02:35:35;;;;;;;5.10;4.30;;;;;;;19.77;48.78;156444.75;4961356;28;20449;-85
2022/08/11 02:38:13;;;;;;;4.43;4.13;;;;;;;19.75;48.83;156439.56;5006954;28;20449;-85
2022/08/11 02:42:21;;;;;;;4.80;4.40;;;;;;;19.72;48.83;156431.72;4994273;28;20457;-85
2022/08/11 02:44:07;;;;;;;4.50;4.10;;;;;;;19.71;48.91;156429.09;4997793;28;20867;-85
2022/08/11 02:46:45;;;;;;;5.20;4.70;;;;;;;19.75;49.06;156439.56;5005640;28;20460;-85
2022/08/11 02:52:05;;;;;;;4.60;4.20;;;;;;;19.67;49.59;156418.69;4993206;28;20434;-85
2022/08/11 02:54:38;;;;;;;4.47;4.17;;;;;;;19.66;49.23;156416.06;4994270;28;20445;-85
2022/08/11 02:57:13;;;;;;;7.30;4.00;;;;;;;19.66;49.05;156416.06;5010554;28;20467;-76
2022/08/11 02:59:51;;;;;;;4.50;4.20;;;;;;;19.62;49.13;156406.91;4993108;28;20455;-77
2022/08/11 03:02:29;;;;;;;4.50;4.00;;;;;;;19.57;49.56;156392.56;4993307;28;20468;-75
2022/08/11 03:05:07;;;;;;;7.17;4.60;;;;;;;19.53;49.23;156382.16;4987571;28;20449;-75
2022/08/11 03:07:42;;;;;;;4.50;4.10;;;;;;;19.48;49.54;156369.13;4992995;28;20461;-75
2022/08/11 03:10:13;;;;;;;4.63;4.23;;;;;;;19.41;50.28;156352.16;4992493;28;20503;-75
2022/08/11 03:18:23;;;;;;;4.60;4.20;;;;;;;19.29;50.53;156322.16;4989756;28;20448;-75
2022/08/11 03:20:56;;;;;;;4.73;4.33;;;;;;;19.20;50.76;156297.38;4982604;28;20456;-76
2022/08/11 03:23:29;;;;;;;4.80;4.40;;;;;;;19.17;51.17;156289.53;4994185;28;20580;-76
2022/08/11 03:26:00;;;;;;;5.17;4.77;;;;;;;19.12;51.29;156276.53;4990766;28;20449;-75
2022/08/11 03:28:31;;;;;;;5.90;4.80;;;;;;;19.14;51.22;156281.78;4990484;28;20446;-75
2022/08/11 03:31:08;;;;;;;5.20;4.80;;;;;;;19.09;51.44;156268.75;4989489;28;21041;-76
2022/08/11 03:36:46;;;;;;;5.83;5.33;;;;;;;19.10;51.80;156272.63;4992673;28;20485;-75
2022/08/11 03:39:20;;;;;;;6.47;5.87;;;;;;;19.05;51.81;156259.59;4991543;28;20504;-76
2022/08/11 03:41:54;;;;;;;7.03;5.23;;;;;;;19.05;51.80;156259.59;5004862;28;20543;-75
2022/08/11 03:44:54;;;;;;;6.80;6.20;;;;;;;18.99;51.98;156243.97;5010335;28;20502;-75
2022/08/11 03:47:48;;;;;;;7.00;6.30;;;;;;;19.01;52.16;156247.91;5008318;28;20511;-75
2022/08/11 03:50:24;;;;;;;7.30;6.50;;;;;;;18.98;52.18;156241.38;4991926;28;20465;-75
2022/08/11 03:53:03;;;;;;;6.47;5.60;;;;;;;18.95;52.19;156233.56;5007590;28;20547;-75
2022/08/11 03:55:42;;;;;;;7.20;6.17;;;;;;;18.95;52.62;156232.25;5006034;28;20589;-75
2022/08/11 03:58:31;;;;;;;6.47;5.87;;;;;;;18.92;52.31;156224.41;4993829;28;20460;-75
2022/08/11 04:01:33;;;;;;;6.53;5.93;;;;;;;18.87;52.28;156211.41;5004897;28;20449;-75
2022/08/11 04:04:44;;;;;;;7.20;6.20;;;;;;;18.86;52.50;156210.09;5007411;28;20982;-75
2022/08/11 04:07:48;;;;;;;7.37;5.87;;;;;;;18.82;52.71;156200.94;5005795;28;20464;-75
2022/08/11 04:10:46;;;;;;;6.27;5.73;;;;;;;18.80;52.66;156194.44;4994048;28;20531;-75
2022/08/11 04:13:50;;;;;;;6.47;5.87;;;;;;;18.74;52.69;156178.84;4992740;28;20956;-75
2022/08/11 04:16:40;;;;;;;5.83;5.30;;;;;;;18.73;52.93;156176.22;4987894;28;20449;-75
2022/08/11 04:19:40;;;;;;;5.97;5.47;;;;;;;18.69;53.04;156165.81;4983312;28;20484;-77
2022/08/11 04:22:51;;;;;;;7.40;5.57;;;;;;;18.66;53.34;156158.00;4995315;28;20631;-75
2022/08/11 04:25:29;;;;;;;5.93;5.43;;;;;;;18.71;53.23;156172.31;4968055;28;20466;-75
2022/08/11 04:28:24;;;;;;;6.73;5.90;;;;;;;18.74;53.02;156178.84;4976982;28;20936;-75
2022/08/11 04:31:03;;;;;;;6.93;5.90;;;;;;;18.81;53.23;156198.38;5006700;28;20547;-77
2022/08/11 04:33:53;;;;;;;6.37;5.77;;;;;;;18.84;53.33;156204.88;4992132;28;20445;-76
2022/08/11 04:39:39;;;;;;;13.50;7.03;;;;;;;18.89;52.97;156217.91;4992693;28;20445;-77
2022/08/11 04:45:39;;;;;;;5.80;5.30;;;;;;;18.91;53.02;156221.78;4977184;28;21040;-75
2022/08/11 05:03:28;;;;;;;7.60;6.50;;;;;;;19.08;52.73;156267.44;4982366;28;20481;-76
2022/08/11 05:06:28;;;;;;;6.67;6.07;;;;;;;19.08;52.84;156266.13;4995242;28;20864;-77
2022/08/11 05:09:20;;;;;;;5.77;5.27;;;;;;;19.05;53.08;156258.28;4995138;28;20449;-76
2022/08/11 05:12:05;;;;;;;7.30;5.90;;;;;;;19.19;52.70;156294.81;5011372;28;20450;-76
2022/08/11 05:37:07;;;;;;;6.07;4.80;;;;;;;21.21;48.14;156817.91;4995718;28;20536;-76
2022/08/11 05:56:23;;;;;;;5.53;5.03;;;;;;;22.34;45.82;157110.44;4977784;28;20450;-77
2022/08/11 05:58:51;;;;;;;6.53;5.40;;;;;;;22.47;45.89;157144.38;4993671;28;20480;-77
2022/08/11 06:01:23;;;;;;;6.20;5.60;;;;;;;22.65;45.63;157191.47;4992810;28;20548;-77
2022/08/11 06:06:39;;;;;;;5.00;4.60;;;;;;;22.76;44.63;157220.22;4977179;28;20461;-77
2022/08/11 06:09:06;;;;;;;6.00;5.40;;;;;;;22.86;44.81;157246.31;4999522;28;20437;-77
2022/08/11 06:11:39;;;;;;;5.47;4.97;;;;;;;23.00;44.35;157282.94;5012988;28;20806;-77
2022/08/11 06:14:06;;;;;;;5.60;5.10;;;;;;;23.03;44.73;157289.47;5003573;28;20438;-77
2022/08/11 06:16:34;;;;;;;5.87;5.23;;;;;;;23.40;44.06;157386.22;4986675;28;20488;-77
2022/08/11 06:19:01;;;;;;;5.93;5.43;;;;;;;23.36;43.80;157374.38;5001164;28;20447;-77
2022/08/11 06:21:28;;;;;;;5.53;5.13;;;;;;;23.53;44.22;157418.88;5012321;28;20773;-77
2022/08/11 06:23:55;;;;;;;5.23;4.83;;;;;;;23.83;42.79;157497.28;4991378;28;20477;-77
2022/08/11 06:26:22;;;;;;;5.77;5.37;;;;;;;24.14;42.28;157578.47;5010027;28;20488;-77
2022/08/11 06:28:50;;;;;;;9.23;6.00;;;;;;;24.26;42.22;157608.50;4985583;28;20539;-77
2022/08/11 06:31:22;;;;;;;8.23;5.20;;;;;;;24.46;42.48;157659.53;5007642;28;20857;-77
2022/08/11 06:33:56;;;;;;;12.00;4.90;;;;;;;24.56;42.24;157685.69;4973392;28;20547;-77
2022/08/11 06:36:38;;;;;;;6.90;5.23;;;;;;;24.30;42.08;157617.66;4986964;28;20464;-77
2022/08/11 06:39:13;;;;;;;5.80;5.30;;;;;;;24.54;41.68;157680.47;4974971;28;20485;-77
2022/08/11 06:41:45;;;;;;;6.00;5.00;;;;;;;24.48;41.65;157664.75;4991330;28;20512;-77
2022/08/11 06:44:23;;;;;;;5.60;5.20;;;;;;;24.33;41.27;157625.53;5003199;28;20984;-78
2022/08/11 06:46:53;;;;;;;6.00;5.40;;;;;;;24.33;41.80;157625.53;5006938;28;20453;-77
2022/08/11 06:52:08;;;;;;;5.40;4.97;;;;;;;24.37;42.22;157635.97;4978036;28;20540;-84
2022/08/11 06:54:40;;;;;;;6.57;5.87;;;;;;;24.45;41.49;157658.22;4997566;28;20477;-85
2022/08/11 07:02:46;;;;;;;5.60;5.13;;;;;;;25.03;41.33;157807.38;5006167;28;20479;-84
2022/08/11 07:05:20;;;;;;;6.10;5.60;;;;;;;25.04;41.19;157811.34;4982555;28;20476;-84
2022/08/11 07:16:54;;;;;;;5.87;5.30;;;;;;;25.88;39.64;158028.63;4997765;28;20444;-84
2022/08/11 07:30:29;;;;;;;5.30;4.80;;;;;;;26.67;37.75;158234.25;4999603;28;20438;-84
2022/08/11 07:32:59;;;;;;;5.27;4.80;;;;;;;26.93;37.89;158301.09;5014633;28;20542;-84
2022/08/11 07:35:30;;;;;;;6.30;5.80;;;;;;;26.38;37.75;158158.31;5014289;28;21008;-84
2022/08/11 07:37:59;;;;;;;5.80;5.10;;;;;;;26.05;38.34;158073.16;4981539;28;20491;-84
2022/08/11 07:40:29;;;;;;;5.47;5.07;;;;;;;25.82;39.19;158014.22;4998173;28;20457;-83
2022/08/11 07:42:56;;;;;;;5.60;5.10;;;;;;;25.90;38.99;158033.84;4984740;28;20481;-84
2022/08/11 07:53:46;;;;;;;6.40;5.87;;;;;;;27.34;36.59;158408.56;4982681;28;20946;-80
2022/08/11 07:56:15;;;;;;;6.90;6.00;;;;;;;27.61;36.26;158479.41;5001922;28;21120;-80
2022/08/11 08:18:02;;;;;;;5.13;4.73;;;;;;;27.51;36.04;158453.16;4976098;28;20527;-81
2022/08/11 08:20:32;;;;;;;5.80;5.30;;;;;;;27.55;35.77;158463.66;4996523;28;20544;-80
2022/08/11 08:23:01;;;;;;;5.23;4.83;;;;;;;27.12;35.92;158350.91;4976775;28;20515;-79
2022/08/11 08:25:29;;;;;;;5.13;4.73;;;;;;;27.23;36.41;158378.41;4978691;28;20654;-79
2022/08/11 08:27:57;;;;;;;5.13;4.63;;;;;;;27.12;36.42;158350.91;4977411;28;20801;-79
2022/08/11 08:33:12;;;;;;;5.00;4.60;;;;;;;27.99;35.27;158576.34;4993417;28;20460;-79
2022/08/11 08:35:41;;;;;;;4.77;4.37;;;;;;;27.55;34.90;158462.34;4987774;28;20986;-79
2022/08/11 08:38:08;;;;;;;5.20;4.63;;;;;;;27.23;36.19;158379.75;4983563;28;20464;-79
2022/08/11 08:40:35;;;;;;;5.77;5.00;;;;;;;27.03;35.58;158327.34;4980999;28;20509;-79
2022/08/11 08:43:06;;;;;;;4.97;4.47;;;;;;;27.61;35.56;158479.41;4976789;28;20455;-79
2022/08/11 08:45:34;;;;;;;5.40;4.90;;;;;;;27.03;35.62;158328.63;4981154;28;20491;-79
2022/08/11 08:48:03;;;;;;;4.67;4.27;;;;;;;27.24;35.76;158381.06;4997489;28;20457;-79
2022/08/11 08:53:21;;;;;;;4.70;4.30;;;;;;;27.93;35.21;158560.66;4985167;28;20445;-79
2022/08/11 08:55:49;;;;;;;5.27;4.87;;;;;;;27.31;35.98;158399.38;4981428;28;20464;-80
2022/08/11 08:58:19;;;;;;;5.27;4.77;;;;;;;27.01;35.66;158322.06;4986336;28;20453;-79
2022/08/11 09:00:47;;;;;;;5.13;4.63;;;;;;;27.12;35.64;158350.91;5000590;28;20452;-79
2022/08/11 09:03:14;;;;;;;5.47;5.00;;;;;;;27.22;36.03;158377.09;4995203;28;20477;-79
2022/08/11 09:05:41;;;;;;;7.50;4.87;;;;;;;27.13;35.83;158354.88;4979792;28;20880;-81
2022/08/11 09:08:08;;;;;;;5.43;4.20;;;;;;;26.81;35.12;158269.69;4982982;28;20450;-82
2022/08/11 09:10:37;;;;;;;4.80;4.40;;;;;;;27.18;35.49;158366.63;5008651;28;20798;-79
2022/08/11 09:13:07;;;;;;;4.63;4.23;;;;;;;27.05;35.23;158332.56;4976261;28;20608;-79
2022/08/11 09:15:36;;;;;;;4.73;4.20;;;;;;;26.72;35.54;158246.03;4999484;28;20441;-79
2022/08/11 09:18:05;;;;;;;4.70;4.23;;;;;;;26.88;35.36;158288.00;4998101;28;20816;-82
2022/08/11 09:20:34;;;;;;;4.33;4.03;;;;;;;26.87;35.85;158285.44;4981045;28;20540;-81
2022/08/11 09:28:43;;;;;;;4.57;4.27;;;;;;;27.13;35.34;158353.53;5004181;28;21063;-79
2022/08/11 09:31:11;;;;;;;5.20;4.07;;;;;;;27.01;34.95;158323.38;4988371;28;20549;-81
2022/08/11 09:33:39;;;;;;;4.50;4.10;;;;;;;26.94;34.50;158303.75;5002483;28;20551;-81
2022/08/11 09:41:46;;;;;;;4.83;4.03;;;;;;;26.28;34.77;158133.44;4992888;28;20448;-81
2022/08/11 09:46:58;;;;;;;3.77;3.50;;;;;;;27.15;34.27;158358.78;4999845;28;20448;-80
2022/08/11 09:49:25;;;;;;;4.60;3.83;;;;;;;26.45;34.21;158177.94;4987510;28;20515;-82
2022/08/11 09:51:54;;;;;;;3.90;3.60;;;;;;;26.41;34.61;158166.16;5000299;28;20478;-81
2022/08/11 09:54:21;;;;;;;4.80;4.40;;;;;;;26.34;34.22;158147.84;5002822;28;20469;-81
2022/08/11 09:59:36;;;;;;;4.77;3.90;;;;;;;26.90;34.66;158293.28;5000244;28;20445;-81
2022/08/11 10:02:04;;;;;;;5.17;4.57;;;;;;;27.10;34.35;158345.69;5006925;28;20555;-81
2022/08/11 10:04:37;;;;;;;4.00;3.70;;;;;;;26.82;33.77;158272.31;5006943;28;20480;-79
2022/08/11 10:07:05;;;;;;;4.40;4.00;;;;;;;26.33;33.74;158146.53;4985331;28;20519;-82
2022/08/11 10:09:38;;;;;;;4.50;4.10;;;;;;;26.31;34.36;158141.31;4975889;28;20492;-82
2022/08/11 10:12:10;;;;;;;4.57;4.17;;;;;;;26.21;34.47;158113.81;4980198;28;20456;-82
2022/08/11 10:17:26;;;;;;;3.97;3.67;;;;;;;26.76;33.86;158256.53;4976231;28;20437;-81
2022/08/11 10:19:56;;;;;;;4.60;4.20;;;;;;;27.03;32.71;158328.63;4977190;28;20547;-81
2022/08/11 10:27:57;;;;;;;3.93;3.63;;;;;;;26.63;33.96;158222.50;4985795;28;20815;-82
2022/08/11 10:36:05;;;;;;;4.47;3.80;;;;;;;26.65;34.34;158229.03;4994543;28;20438;-82
2022/08/11 10:38:32;;;;;;;3.80;3.33;;;;;;;26.50;33.91;158191.03;4993221;28;20452;-82
2022/08/11 10:43:41;;;;;;;7.33;4.20;;;;;;;26.44;33.79;158174.03;4991869;28;20452;-82
2022/08/11 10:48:55;;;;;;;4.40;4.00;;;;;;;26.34;33.50;158149.16;4986825;28;20449;-82
2022/08/11 10:59:41;;;;;;;4.27;3.87;;;;;;;26.76;33.84;158256.53;4987189;28;20548;-82
2022/08/11 11:02:13;;;;;;;4.60;4.30;;;;;;;26.80;33.65;158267.06;5000152;28;22074;-81
2022/08/11 11:04:47;;;;;;;4.57;4.17;;;;;;;26.69;33.25;158239.50;4996322;28;20481;-81
2022/08/11 11:07:19;;;;;;;4.00;3.60;;;;;;;26.83;33.53;158274.91;4984035;28;20952;-81
2022/08/11 11:09:49;;;;;;;4.10;3.80;;;;;;;26.70;32.61;158242.13;4998185;28;20463;-81
2022/08/11 11:17:56;;;;;;;3.60;3.33;;;;;;;26.38;33.26;158158.31;4996139;28;20966;-81
2022/08/11 11:20:25;;;;;;;3.50;3.20;;;;;;;26.61;33.04;158218.53;4992571;28;20457;-81
2022/08/11 11:22:55;;;;;;;4.27;3.87;;;;;;;26.47;33.17;158183.22;4983731;28;20928;-80
2022/08/11 11:25:32;;;;;;;3.73;3.43;;;;;;;26.58;32.68;158210.72;5001553;28;20524;-80
2022/08/11 11:28:27;;;;;;;4.20;3.90;;;;;;;26.48;32.63;158185.81;4995332;28;20489;-81
2022/08/11 11:31:07;;;;;;;3.50;3.20;;;;;;;26.67;33.24;158234.25;4998879;28;20497;-80
2022/08/11 11:33:44;;;;;;;3.67;3.37;;;;;;;26.99;32.00;158318.16;4994032;28;20447;-81
2022/08/11 11:36:17;;;;;;;4.70;3.70;;;;;;;26.86;32.12;158282.78;5001134;28;20535;-81
2022/08/11 11:38:44;;;;;;;3.93;3.63;;;;;;;26.98;32.39;158315.53;4986993;28;20560;-81
2022/08/11 11:41:27;;;;;;;3.80;3.50;;;;;;;27.23;31.56;158379.75;4996874;28;20939;-81
2022/08/11 11:43:55;;;;;;;3.67;3.37;;;;;;;27.10;31.62;158345.69;5001266;28;20848;-81
2022/08/11 11:46:25;;;;;;;3.43;3.13;;;;;;;26.80;31.56;158267.06;4994082;28;20449;-81
2022/08/11 11:48:52;;;;;;;4.57;3.20;;;;;;;26.73;31.33;158250.00;4999621;28;20531;-81
2022/08/11 11:51:19;;;;;;;3.60;3.30;;;;;;;26.71;31.04;158243.44;4985564;28;20460;-81
2022/08/11 11:53:47;;;;;;;3.47;3.17;;;;;;;26.66;31.49;158230.34;5028984;28;20805;-82
2022/08/11 11:56:14;;;;;;;3.13;2.83;;;;;;;26.82;31.61;158272.31;4996578;28;20495;-81
2022/08/11 12:01:28;;;;;;;4.37;3.47;;;;;;;26.90;31.09;158293.28;4973169;28;20729;-80
2022/08/11 12:03:56;;;;;;;3.77;3.47;;;;;;;27.01;31.43;158322.06;4980248;28;20469;-80
2022/08/11 12:06:24;;;;;;;3.10;2.80;;;;;;;27.11;30.75;158349.59;5000188;28;20580;-80
2022/08/11 12:08:53;;;;;;;3.10;2.80;;;;;;;27.01;31.09;158322.06;5000537;28;20462;-80
2022/08/11 12:14:08;;;;;;;4.63;3.57;;;;;;;27.25;31.63;158384.97;4994083;28;20448;-84
2022/08/11 12:16:38;;;;;;;3.80;3.10;;;;;;;27.33;30.19;158405.94;5012622;28;20452;-84
2022/08/11 12:19:06;;;;;;;3.83;3.33;;;;;;;27.24;30.02;158381.06;4994543;28;20551;-83
2022/08/11 12:21:35;;;;;;;5.50;3.60;;;;;;;27.19;30.39;158369.28;4995991;28;20485;-83
2022/08/11 12:29:37;;;;;;;3.37;3.17;;;;;;;27.01;30.72;158322.06;4985772;28;20449;-81
2022/08/11 12:32:07;;;;;;;3.77;3.47;;;;;;;27.10;30.49;158345.69;4990292;28;20454;-81
2022/08/11 12:34:36;;;;;;;3.20;3.00;;;;;;;26.97;30.06;158312.94;4993697;28;20556;-81
2022/08/11 12:37:09;;;;;;;4.00;3.70;;;;;;;26.89;30.60;158291.97;4977418;28;20454;-80
2022/08/11 12:45:32;;;;;;;3.90;3.50;;;;;;;27.15;30.60;158360.09;4996919;28;20538;-80
2022/08/11 12:53:45;;;;;;;4.10;3.80;;;;;;;26.97;30.43;158311.63;4987558;28;20526;-81
2022/08/11 13:07:12;;;;;;;3.43;3.20;;;;;;;27.34;29.19;158408.56;4991814;28;20480;-81
2022/08/11 13:09:40;;;;;;;4.00;3.33;;;;;;;27.27;30.46;158390.19;5004465;28;20559;-81
2022/08/11 13:14:52;;;;;;;3.60;3.30;;;;;;;27.33;29.52;158405.94;4984284;28;20531;-81
2022/08/11 13:17:21;;;;;;;3.77;3.47;;;;;;;27.43;29.93;158432.19;4991704;28;20445;-81
2022/08/11 13:19:50;;;;;;;3.57;3.27;;;;;;;27.37;29.64;158416.44;5002626;28;20544;-81
2022/08/11 13:22:18;;;;;;;3.43;3.10;;;;;;;27.33;29.78;158404.63;5004970;28;20441;-80
2022/08/11 13:24:45;;;;;;;3.23;3.03;;;;;;;27.35;29.65;158411.16;5002293;28;20582;-80
2022/08/11 13:27:12;;;;;;;3.53;3.10;;;;;;;27.56;29.78;158466.25;4984935;28;20492;-80
2022/08/11 13:29:41;;;;;;;6.00;3.67;;;;;;;27.70;29.38;158502.97;5003496;28;21027;-80
2022/08/11 13:32:10;;;;;;;3.33;3.03;;;;;;;27.70;30.12;158502.97;5005974;28;20462;-79
2022/08/11 13:34:40;;;;;;;3.67;3.37;;;;;;;27.66;30.01;158492.50;5004877;28;20527;-80
2022/08/11 13:37:11;;;;;;;3.90;3.50;;;;;;;27.71;30.10;158504.28;4997684;28;20929;-80
2022/08/11 13:39:43;;;;;;;3.83;3.53;;;;;;;27.53;29.31;158458.44;5006538;28;20456;-80
2022/08/11 13:42:10;;;;;;;5.03;3.73;;;;;;;27.53;29.14;158457.13;4985665;28;20467;-80
2022/08/11 13:44:37;;;;;;;3.97;3.60;;;;;;;27.63;29.64;158484.63;5006655;28;20512;-80
2022/08/11 13:47:07;;;;;;;3.77;3.40;;;;;;;27.63;29.29;158484.63;5002855;28;20456;-80
2022/08/11 13:49:36;;;;;;;5.27;3.00;;;;;;;27.53;29.49;158457.13;4995268;28;20548;-80
2022/08/11 13:52:03;;;;;;;3.93;3.53;;;;;;;27.66;28.68;158492.50;4976126;28;20548;-81
2022/08/11 13:54:37;;;;;;;4.03;3.57;;;;;;;27.64;29.74;158485.97;5003018;28;20449;-81
2022/08/11 13:57:06;;;;;;;3.50;3.20;;;;;;;27.72;29.28;158508.19;4980503;28;20512;-81
2022/08/11 13:59:33;;;;;;;3.50;3.20;;;;;;;27.65;29.09;158488.53;4987250;28;20471;-80
2022/08/11 14:02:02;;;;;;;3.97;3.67;;;;;;;27.48;28.93;158445.28;4982570;28;20493;-80
2022/08/11 14:04:39;;;;;;;3.90;3.27;;;;;;;27.55;29.01;158463.66;4994898;28;20460;-80
2022/08/11 14:07:08;;;;;;;6.13;3.17;;;;;;;27.69;28.90;158500.31;4978911;28;20500;-80
2022/08/11 14:09:39;;;;;;;3.17;2.97;;;;;;;27.76;28.60;158517.41;4989274;28;20500;-80
2022/08/11 14:14:59;;;;;;;3.87;3.40;;;;;;;27.78;28.94;158523.94;5005327;28;20819;-81
2022/08/11 14:17:28;;;;;;;5.33;3.00;;;;;;;27.55;28.04;158462.34;4980332;28;20889;-81
2022/08/11 14:19:56;;;;;;;3.23;3.03;;;;;;;27.40;29.17;158423.03;4985728;28;20465;-81
2022/08/11 14:22:22;;;;;;;3.90;3.60;;;;;;;27.62;29.01;158480.69;5005289;28;20889;-81
2022/08/11 14:24:50;;;;;;;5.67;3.90;;;;;;;27.68;28.81;158497.75;5011746;28;20847;-81
2022/08/11 14:27:25;;;;;;;3.33;3.13;;;;;;;27.73;28.49;158510.84;4993111;28;20659;-81
2022/08/11 14:29:53;;;;;;;3.30;3.10;;;;;;;27.71;27.92;158504.28;4985951;28;20971;-80
2022/08/11 14:32:20;;;;;;;3.60;3.30;;;;;;;27.62;28.41;158482.00;5001466;28;20463;-81
2022/08/11 14:34:47;;;;;;;4.37;3.50;;;;;;;27.72;28.53;158508.19;4991077;28;20504;-81
2022/08/11 14:37:19;;;;;;;3.53;3.23;;;;;;;27.78;28.38;158522.63;4999552;28;20445;-81
2022/08/11 14:39:48;;;;;;;4.30;3.37;;;;;;;27.76;28.02;158518.72;5010837;28;20457;-81
2022/08/11 14:48:05;;;;;;;3.93;3.63;;;;;;;27.87;28.11;158544.91;4982206;28;20453;-81
2022/08/11 14:50:32;;;;;;;3.73;3.30;;;;;;;27.75;27.98;158514.75;4974898;28;20936;-81
2022/08/11 14:53:03;;;;;;;3.83;3.43;;;;;;;27.76;27.57;158518.72;4992637;28;20453;-81
2022/08/11 14:58:19;;;;;;;3.53;3.23;;;;;;;27.85;27.65;158539.69;5007995;28;20770;-83
2022/08/11 15:00:47;;;;;;;4.13;3.33;;;;;;;27.85;27.69;158539.69;4974128;28;20545;-82
2022/08/11 15:03:14;;;;;;;3.33;3.03;;;;;;;27.85;27.24;158541.00;4991745;28;20568;-81
2022/08/11 15:05:46;;;;;;;3.87;3.43;;;;;;;27.82;27.35;158533.13;4993351;28;20698;-81
2022/08/11 15:08:14;;;;;;;3.30;3.00;;;;;;;27.82;27.44;158533.13;4977448;28;20460;-81
2022/08/11 15:10:41;;;;;;;3.33;3.13;;;;;;;27.83;27.45;158534.44;4973027;28;20461;-81
2022/08/11 15:13:09;;;;;;;3.50;3.20;;;;;;;27.83;27.23;158534.44;5002080;28;20545;-81
2022/08/11 15:18:23;;;;;;;3.20;3.00;;;;;;;27.67;27.11;158495.09;5003755;28;20457;-82
2022/08/11 15:37:25;;;;;;;3.30;3.10;;;;;;;27.79;27.99;158526.59;4975138;28;20501;-81
2022/08/11 15:37:44;;;;;;;3.93;3.33;;;;;;;27.77;27.00;158521.31;5007865;28;20520;-82
2022/08/11 15:46:01;;;;;;;3.70;3.40;;;;;;;27.78;27.62;158522.63;4996519;28;21009;-81
2022/08/11 15:48:37;;;;;;;3.13;2.93;;;;;;;27.78;28.13;158522.63;4986172;28;20457;-81
2022/08/11 15:51:09;;;;;;;3.53;3.00;;;;;;;27.89;27.57;158550.16;4992134;28;20452;-81
2022/08/11 15:53:41;;;;;;;3.93;3.63;;;;;;;27.95;27.05;158565.91;4983460;28;20495;-81
2022/08/11 15:56:09;;;;;;;3.87;3.40;;;;;;;27.76;27.56;158518.72;4989211;28;20484;-81
2022/08/11 16:04:14;;;;;;;3.70;3.40;;;;;;;27.74;27.61;158512.16;4999352;28;20448;-81
2022/08/11 16:06:45;;;;;;;3.40;3.10;;;;;;;27.76;27.46;158518.72;4992437;28;20564;-81
2022/08/11 16:09:14;;;;;;;3.50;3.13;;;;;;;27.70;27.98;158502.97;4978983;28;20848;-81
2022/08/11 16:11:41;;;;;;;3.90;3.60;;;;;;;27.72;27.51;158508.19;4989062;28;20453;-81
2022/08/11 16:16:57;;;;;;;5.17;3.77;;;;;;;27.68;28.52;158497.75;4989571;28;20444;-81
2022/08/11 16:19:27;;;;;;;3.10;2.90;;;;;;;27.65;27.85;158489.88;5002179;28;20809;-81
2022/08/11 16:21:55;;;;;;;5.37;3.50;;;;;;;27.62;28.22;158480.69;4983464;28;20552;-81
2022/08/11 16:24:22;;;;;;;3.60;3.30;;;;;;;27.61;28.34;158478.09;4984329;28;20850;-81
2022/08/11 16:27:07;;;;;;;3.73;3.27;;;;;;;27.63;28.41;158483.31;5003620;28;20522;-81
2022/08/11 16:29:38;;;;;;;4.00;3.33;;;;;;;27.61;28.16;158479.41;4986751;28;20464;-81
2022/08/11 16:32:19;;;;;;;3.37;3.10;;;;;;;27.58;28.71;158471.53;4989779;28;20460;-81
2022/08/11 16:40:28;;;;;;;3.67;3.37;;;;;;;27.57;28.32;158468.91;4984846;28;20465;-81